Time;durP1;ratioP1;P1;durP2;ratioP2;P2;SDS_P1;SDS_P2;PMS_P1;PMS_P2;Temp;Humidity;BMP_temperature;BMP_pressure;BME280_temperature;BME280_humidity;BME280_pressure;Samples;Min_cycle;Max_cycle;Signal;HPM_P1;HPM_P2
2021/08/30 00:01:05;0.00;0.00;0.62;0.00;0.00;0.62;7.40;6.70;;;25.40;42.40;;;;;;2241880;61;20511;-62
2021/08/30 00:03:50;0.00;0.00;0.62;0.00;0.00;0.62;8.07;7.37;;;25.40;42.40;;;;;;2241035;62;20775;-62
2021/08/30 00:06:34;0.00;0.00;0.62;0.00;0.00;0.62;7.57;6.80;;;25.40;42.30;;;;;;2241807;62;20410;-62
2021/08/30 00:09:19;0.00;0.00;0.62;0.00;0.00;0.62;8.33;7.30;;;25.40;42.30;;;;;;2240894;62;20587;-61
2021/08/30 00:12:04;0.00;0.00;0.62;0.00;0.00;0.62;7.63;6.90;;;25.40;42.30;;;;;;2241741;61;20379;-62
2021/08/30 00:14:34;0.00;0.00;0.62;0.00;0.00;0.62;7.70;6.90;;;25.40;42.30;;;;;;2241915;62;20370;-62
2021/08/30 00:17:00;0.00;0.00;0.62;0.00;0.00;0.62;8.37;6.77;;;25.40;42.30;;;;;;2240513;62;20359;-62
2021/08/30 00:19:28;0.00;0.00;0.62;0.00;0.00;0.62;8.60;7.80;;;25.40;42.20;;;;;;2241667;62;20367;-60
2021/08/30 00:22:13;0.00;0.00;0.62;0.00;0.00;0.62;8.43;7.60;;;25.40;42.20;;;;;;2241892;62;20417;-62
2021/08/30 00:24:57;0.00;0.00;0.62;0.00;0.00;0.62;7.63;6.73;;;25.40;42.20;;;;;;2240503;62;20663;-61
2021/08/30 00:27:42;0.00;0.00;0.62;0.00;0.00;0.62;7.70;7.00;;;25.40;42.20;;;;;;2241776;62;20407;-62
2021/08/30 00:30:28;0.00;0.00;0.62;0.00;0.00;0.62;9.00;7.00;;;25.40;42.20;;;;;;2241816;61;20366;-62
2021/08/30 00:33:12;0.00;0.00;0.62;0.00;0.00;0.62;8.50;7.70;;;25.40;42.20;;;;;;2240580;62;20722;-62
2021/08/30 00:35:57;0.00;0.00;0.62;0.00;0.00;0.62;7.93;7.13;;;25.50;42.30;;;;;;2241819;62;20413;-61
2021/08/30 00:38:41;0.00;0.00;0.62;0.00;0.00;0.62;7.63;6.90;;;25.50;42.30;;;;;;2240992;62;20399;-61
2021/08/30 00:41:26;0.00;0.00;0.62;0.00;0.00;0.62;7.97;7.17;;;25.50;42.30;;;;;;2241406;62;20441;-62
2021/08/30 00:44:11;0.00;0.00;0.62;0.00;0.00;0.62;7.53;6.83;;;25.50;42.20;;;;;;2241792;62;20753;-62
2021/08/30 00:46:57;0.00;0.00;0.62;0.00;0.00;0.62;8.43;7.73;;;25.50;42.20;;;;;;2240519;62;20362;-60
2021/08/30 00:49:42;0.00;0.00;0.62;0.00;0.00;0.62;7.40;6.70;;;25.50;42.20;;;;;;2241714;62;20722;-61
2021/08/30 00:52:27;0.00;0.00;0.62;0.00;0.00;0.62;8.20;7.33;;;25.50;42.20;;;;;;2241679;62;20402;-60
2021/08/30 00:55:13;0.00;0.00;0.62;0.00;0.00;0.62;8.27;7.47;;;25.50;42.20;;;;;;2240304;62;20485;-62
2021/08/30 00:57:58;0.00;0.00;0.62;0.00;0.00;0.62;7.83;7.03;;;25.50;42.10;;;;;;2241895;62;20370;-61
2021/08/30 01:00:43;0.00;0.00;0.62;0.00;0.00;0.62;8.67;7.77;;;25.50;42.10;;;;;;2241528;61;20454;-64
2021/08/30 01:03:29;0.00;0.00;0.62;0.00;0.00;0.62;10.03;7.20;;;25.50;42.10;;;;;;2242105;62;20390;-61
2021/08/30 01:06:23;0.00;0.00;0.62;0.00;0.00;0.62;8.70;7.40;;;25.50;42.10;;;;;;2242577;62;20777;-61
2021/08/30 01:09:17;0.00;0.00;0.62;0.00;0.00;0.62;7.93;7.23;;;25.50;42.10;;;;;;2240975;62;20390;-60
2021/08/30 01:12:16;0.00;0.00;0.62;0.00;0.00;0.62;7.73;6.77;;;25.60;42.10;;;;;;2242492;61;20443;-61
2021/08/30 01:14:50;0.00;0.00;0.62;0.00;0.00;0.62;7.63;6.93;;;25.60;42.10;;;;;;2242410;62;20386;-63
2021/08/30 01:17:36;0.00;0.00;0.62;0.00;0.00;0.62;7.70;7.00;;;25.60;42.10;;;;;;2241198;62;20358;-62
2021/08/30 01:20:35;0.00;0.00;0.62;0.00;0.00;0.62;10.57;7.90;;;25.60;42.10;;;;;;2246192;61;20377;-63
2021/08/30 01:23:22;0.00;0.00;0.62;0.00;0.00;0.62;7.47;6.73;;;25.60;42.00;;;;;;2244965;61;20417;-63
2021/08/30 01:26:10;0.00;0.00;0.62;0.00;0.00;0.62;8.73;7.47;;;25.60;42.00;;;;;;2246475;61;20364;-62
2021/08/30 01:29:13;0.00;0.00;0.62;0.00;0.00;0.62;8.10;7.30;;;25.60;42.00;;;;;;2246336;61;20405;-62
2021/08/30 01:32:03;0.00;0.00;0.62;0.00;0.00;0.62;7.30;6.60;;;25.60;42.00;;;;;;2244939;61;20770;-63
2021/08/30 01:34:49;0.00;0.00;0.62;0.00;0.00;0.62;9.17;8.00;;;25.60;42.00;;;;;;2246443;61;20393;-63
2021/08/30 01:37:36;0.00;0.00;0.62;0.00;0.00;0.62;7.80;7.00;;;25.60;41.90;;;;;;2245993;61;20424;-63
2021/08/30 01:40:24;0.00;0.00;0.62;0.00;0.00;0.62;8.60;7.80;;;25.60;41.90;;;;;;2246032;61;20417;-62
2021/08/30 01:43:10;0.00;0.00;0.62;0.00;0.00;0.62;8.20;7.00;;;25.60;41.90;;;;;;2246373;61;20433;-63
2021/08/30 01:45:55;0.00;0.00;0.62;0.00;0.00;0.62;9.13;8.23;;;25.60;41.90;;;;;;2244939;61;20382;-63
2021/08/30 01:48:48;0.00;0.00;0.62;0.00;0.00;0.62;9.80;7.60;;;25.60;41.90;;;;;;2246307;61;20361;-62
2021/08/30 01:51:36;0.00;0.00;0.62;0.00;0.00;0.62;8.17;7.37;;;25.60;41.90;;;;;;2245955;61;20441;-63
2021/08/30 01:54:22;0.00;0.00;0.62;0.00;0.00;0.62;7.20;6.60;;;25.70;41.90;;;;;;2245077;61;20401;-63
2021/08/30 01:57:07;0.00;0.00;0.62;0.00;0.00;0.62;7.43;6.73;;;25.60;41.80;;;;;;2245945;61;20760;-62
2021/08/30 02:02:56;0.00;0.00;0.62;0.00;0.00;0.62;9.80;7.53;;;25.60;41.80;;;;;;2246169;61;20437;-63
2021/08/30 02:05:41;0.00;0.00;0.62;0.00;0.00;0.62;7.20;6.50;;;25.70;42.50;;;;;;2246094;61;20365;-62
2021/08/30 02:08:31;0.00;0.00;0.62;0.00;0.00;0.62;7.80;7.10;;;25.70;41.80;;;;;;2244996;61;20400;-63
2021/08/30 02:11:21;0.00;0.00;0.62;0.00;0.00;0.62;8.07;7.30;;;25.60;41.70;;;;;;2245934;61;20487;-63
2021/08/30 02:14:09;0.00;0.00;0.62;0.00;0.00;0.62;8.33;7.60;;;25.70;41.90;;;;;;2246009;61;20655;-63
2021/08/30 02:17:00;0.00;0.00;0.62;0.00;0.00;0.62;7.43;6.83;;;25.70;41.80;;;;;;2245127;61;20709;-62
2021/08/30 02:19:54;0.00;0.00;0.62;0.00;0.00;0.62;7.10;6.40;;;25.70;41.80;;;;;;2246194;61;20362;-63
2021/08/30 02:22:42;0.00;0.00;0.62;0.00;0.00;0.62;8.47;7.43;;;25.70;41.80;;;;;;2241922;61;20719;-63
2021/08/30 02:25:30;0.00;0.00;0.62;0.00;0.00;0.62;8.13;7.33;;;25.70;41.80;;;;;;2246178;61;20381;-62
2021/08/30 02:28:15;0.00;0.00;0.62;0.00;0.00;0.62;7.70;7.00;;;25.70;41.80;;;;;;2245944;61;20382;-63
2021/08/30 02:31:01;0.00;0.00;0.62;0.00;0.00;0.62;7.70;7.00;;;25.70;41.80;;;;;;2244861;61;20421;-64
2021/08/30 02:33:46;0.00;0.00;0.62;0.00;0.00;0.62;8.50;7.60;;;25.70;41.70;;;;;;2246027;61;20721;-63
2021/08/30 02:36:31;0.00;0.00;0.62;0.00;0.00;0.62;7.80;7.10;;;25.70;41.70;;;;;;2246021;61;20369;-63
2021/08/30 02:39:18;0.00;0.00;0.62;0.00;0.00;0.62;7.93;7.23;;;25.70;41.70;;;;;;2245462;61;20573;-62
2021/08/30 02:42:05;0.00;0.00;0.62;0.00;0.00;0.62;8.73;7.83;;;25.70;41.70;;;;;;2245927;61;20608;-62
2021/08/30 02:44:50;0.00;0.00;0.62;0.00;0.00;0.62;8.27;7.50;;;25.70;41.70;;;;;;2244928;61;20393;-63
2021/08/30 02:47:36;0.00;0.00;0.62;0.00;0.00;0.62;8.07;7.27;;;25.70;41.60;;;;;;2246098;61;20428;-60
2021/08/30 02:50:23;0.00;0.00;0.62;0.00;0.00;0.62;8.20;7.40;;;25.70;41.60;;;;;;2245546;61;20438;-63
2021/08/30 02:53:08;0.00;0.00;0.62;0.00;0.00;0.62;8.27;7.43;;;25.70;41.60;;;;;;2244708;61;20373;-62
2021/08/30 02:55:54;0.00;0.00;0.62;0.00;0.00;0.62;7.37;6.77;;;25.70;41.60;;;;;;2245890;61;20431;-63
2021/08/30 02:58:40;0.00;0.00;0.62;0.00;0.00;0.62;8.60;7.87;;;25.70;41.60;;;;;;2246201;61;20365;-63
2021/08/30 03:01:26;0.00;0.00;0.62;0.00;0.00;0.62;7.70;7.00;;;25.70;41.50;;;;;;2245073;61;20405;-62
2021/08/30 03:04:11;0.00;0.00;0.62;0.00;0.00;0.62;8.73;7.93;;;25.70;41.50;;;;;;2245779;61;20397;-62
2021/08/30 03:06:57;0.00;0.00;0.62;0.00;0.00;0.62;7.83;7.07;;;25.70;41.50;;;;;;2245101;61;20354;-62
2021/08/30 03:09:42;0.00;0.00;0.62;0.00;0.00;0.62;8.10;7.40;;;25.70;41.50;;;;;;2245822;61;20365;-62
2021/08/30 03:12:32;0.00;0.00;0.62;0.00;0.00;0.62;9.00;8.17;;;25.70;41.50;;;;;;2246050;61;20615;-62
2021/08/30 03:15:23;0.00;0.00;0.62;0.00;0.00;0.62;8.33;7.53;;;25.70;41.50;;;;;;2244625;61;20365;-62
2021/08/30 03:18:11;0.00;0.00;0.62;0.00;0.00;0.62;7.90;7.20;;;25.70;41.50;;;;;;2246153;61;20710;-63
2021/08/30 03:20:56;0.00;0.00;0.62;0.00;0.00;0.62;8.50;7.60;;;25.70;41.50;;;;;;2245941;61;20421;-62
2021/08/30 03:23:42;0.00;0.00;0.62;0.00;0.00;0.62;7.67;6.97;;;25.70;41.50;;;;;;2244988;61;20757;-62
2021/08/30 03:26:27;0.00;0.00;0.62;0.00;0.00;0.62;7.77;7.03;;;25.70;41.50;;;;;;2245995;61;20690;-62
2021/08/30 03:29:12;0.00;0.00;0.62;0.00;0.00;0.62;7.50;6.77;;;25.70;41.40;;;;;;2244973;61;20483;-62
2021/08/30 03:32:01;0.00;0.00;0.62;0.00;0.00;0.62;7.87;7.10;;;25.70;41.40;;;;;;2245925;61;20381;-62
2021/08/30 03:34:46;0.00;0.00;0.62;0.00;0.00;0.62;8.30;7.43;;;25.70;41.40;;;;;;2245927;61;20726;-63
2021/08/30 03:37:33;0.00;0.00;0.62;0.00;0.00;0.62;8.97;7.90;;;25.70;41.40;;;;;;2244607;61;20442;-62
2021/08/30 03:40:19;0.00;0.00;0.62;0.00;0.00;0.62;8.33;7.60;;;25.80;41.40;;;;;;2245745;61;20381;-62
2021/08/30 03:43:05;0.00;0.00;0.62;0.00;0.00;0.62;8.93;8.10;;;25.70;41.30;;;;;;2245827;61;20370;-62
2021/08/30 03:45:49;0.00;0.00;0.62;0.00;0.00;0.62;7.40;6.80;;;25.80;41.40;;;;;;2245004;61;20365;-62
2021/08/30 03:48:36;0.00;0.00;0.62;0.00;0.00;0.62;7.57;6.83;;;25.80;41.40;;;;;;2245965;61;20603;-62
2021/08/30 03:51:22;0.00;0.00;0.62;0.00;0.00;0.62;8.67;7.87;;;25.80;41.40;;;;;;2244595;61;20529;-62
2021/08/30 03:54:09;0.00;0.00;0.62;0.00;0.00;0.62;8.47;7.67;;;25.70;41.30;;;;;;2242779;61;20573;-61
2021/08/30 03:56:54;0.00;0.00;0.62;0.00;0.00;0.62;8.80;7.57;;;25.80;41.40;;;;;;2245900;61;20409;-62
2021/08/30 03:59:41;0.00;0.00;0.62;0.00;0.00;0.62;8.27;7.50;;;25.70;41.30;;;;;;2244446;61;20365;-62
2021/08/30 04:02:28;0.00;0.00;0.62;0.00;0.00;0.62;8.30;7.50;;;25.80;41.30;;;;;;2245844;61;20385;-63
2021/08/30 04:05:18;0.00;0.00;0.62;0.00;0.00;0.62;9.30;8.40;;;25.80;41.30;;;;;;2245799;61;20397;-62
2021/08/30 04:08:08;0.00;0.00;0.62;0.00;0.00;0.62;8.63;7.85;;;25.80;41.30;;;;;;2245047;61;20398;-63
2021/08/30 04:10:52;0.00;0.00;0.62;0.00;0.00;0.62;10.37;8.40;;;25.80;41.30;;;;;;2245861;61;20259;-63
2021/08/30 04:13:39;0.00;0.00;0.62;0.00;0.00;0.62;9.27;8.40;;;25.80;41.30;;;;;;2244737;61;20398;-62
2021/08/30 04:16:23;0.00;0.00;0.62;0.00;0.00;0.62;8.70;7.90;;;25.80;41.30;;;;;;2245777;61;20362;-61
2021/08/30 04:19:08;0.00;0.00;0.62;0.00;0.00;0.62;7.90;6.90;;;25.80;41.30;;;;;;2245912;61;20365;-63
2021/08/30 04:21:54;0.00;0.00;0.62;0.00;0.00;0.62;8.53;7.67;;;25.80;41.30;;;;;;2244354;61;20405;-62
2021/08/30 04:24:38;0.00;0.00;0.62;0.00;0.00;0.62;9.43;8.53;;;25.80;41.30;;;;;;2245729;61;20413;-62
2021/08/30 04:27:23;0.00;0.00;0.62;0.00;0.00;0.62;8.10;7.40;;;25.80;41.30;;;;;;2245810;61;20412;-63
2021/08/30 04:30:09;0.00;0.00;0.62;0.00;0.00;0.62;8.67;7.90;;;25.80;41.30;;;;;;2244643;61;20361;-63
2021/08/30 04:32:55;0.00;0.00;0.62;0.00;0.00;0.62;8.43;7.73;;;25.80;41.30;;;;;;2245812;61;20445;-63
2021/08/30 04:35:40;0.00;0.00;0.62;0.00;0.00;0.62;9.13;8.30;;;25.80;41.30;;;;;;2245196;61;20365;-62
2021/08/30 04:38:26;0.00;0.00;0.62;0.00;0.00;0.62;7.33;6.73;;;25.80;41.30;;;;;;2246551;61;20369;-63
2021/08/30 04:41:12;0.00;0.00;0.62;0.00;0.00;0.62;8.90;8.00;;;25.80;41.30;;;;;;2246399;61;20381;-62
2021/08/30 04:43:57;0.00;0.00;0.62;0.00;0.00;0.62;8.83;7.93;;;25.80;41.30;;;;;;2244651;61;20421;-62
2021/08/30 04:46:41;0.00;0.00;0.62;0.00;0.00;0.62;8.50;7.70;;;25.80;41.20;;;;;;2245709;61;20369;-62
2021/08/30 04:49:26;0.00;0.00;0.62;0.00;0.00;0.62;8.67;7.87;;;25.80;41.20;;;;;;2246146;61;20381;-62
2021/08/30 04:52:10;0.00;0.00;0.62;0.00;0.00;0.62;9.03;8.00;;;25.80;41.20;;;;;;2245332;61;20495;-63
2021/08/30 04:54:56;0.00;0.00;0.62;0.00;0.00;0.62;7.70;7.00;;;25.80;41.20;;;;;;2246456;61;20364;-62
2021/08/30 04:57:41;0.00;0.00;0.62;0.00;0.00;0.62;7.73;7.07;;;25.80;41.20;;;;;;2245868;61;20481;-63
2021/08/30 05:00:25;0.00;0.00;0.62;0.00;0.00;0.62;8.70;7.87;;;25.80;41.20;;;;;;2246074;61;20369;-63
2021/08/30 05:03:10;0.00;0.00;0.62;0.00;0.00;0.62;8.33;7.63;;;25.80;41.20;;;;;;2246347;61;20373;-63
2021/08/30 05:05:54;0.00;0.00;0.62;0.00;0.00;0.62;7.60;6.90;;;25.80;41.20;;;;;;2245520;61;20365;-63
2021/08/30 05:08:39;0.00;0.00;0.62;0.00;0.00;0.62;8.30;6.70;;;25.80;41.20;;;;;;2246402;61;20373;-63
2021/08/30 05:11:25;0.00;0.00;0.62;0.00;0.00;0.62;7.47;6.80;;;25.80;41.20;;;;;;2246269;61;20401;-63
2021/08/30 05:14:10;0.00;0.00;0.62;0.00;0.00;0.62;7.80;7.10;;;25.80;41.20;;;;;;2245579;61;20365;-63
2021/08/30 05:16:54;0.00;0.00;0.62;0.00;0.00;0.62;7.43;6.73;;;25.80;41.20;;;;;;2246274;61;20369;-63
2021/08/30 05:19:39;0.00;0.00;0.62;0.00;0.00;0.62;7.50;6.80;;;25.80;41.20;;;;;;2246319;61;20381;-62
2021/08/30 05:22:24;0.00;0.00;0.62;0.00;0.00;0.62;8.20;7.47;;;25.80;41.10;;;;;;2246147;61;20421;-62
2021/08/30 05:25:10;0.00;0.00;0.62;0.00;0.00;0.62;7.93;7.23;;;25.80;41.10;;;;;;2246250;61;20397;-63
2021/08/30 05:27:56;0.00;0.00;0.62;0.00;0.00;0.62;8.10;7.40;;;25.80;41.10;;;;;;2245441;61;20366;-63
2021/08/30 05:30:41;0.00;0.00;0.62;0.00;0.00;0.62;8.50;7.10;;;25.80;41.10;;;;;;2246326;61;20390;-62
2021/08/30 05:33:25;0.00;0.00;0.62;0.00;0.00;0.62;7.80;7.10;;;25.80;41.10;;;;;;2246238;61;20397;-63
2021/08/30 05:36:10;0.00;0.00;0.62;0.00;0.00;0.62;7.73;7.03;;;25.80;41.10;;;;;;2245320;61;20438;-63
2021/08/30 05:38:55;0.00;0.00;0.62;0.00;0.00;0.62;8.70;7.70;;;25.80;41.10;;;;;;2246326;61;20397;-62
2021/08/30 05:41:41;0.00;0.00;0.62;0.00;0.00;0.62;8.10;7.30;;;25.80;41.10;;;;;;2246236;61;20449;-63
2021/08/30 05:44:27;0.00;0.00;0.62;0.00;0.00;0.62;8.37;7.30;;;25.80;41.10;;;;;;2246073;61;20426;-63
2021/08/30 05:47:12;0.00;0.00;0.62;0.00;0.00;0.62;7.07;6.47;;;25.80;41.10;;;;;;2246242;61;20804;-62
2021/08/30 05:49:56;0.00;0.00;0.62;0.00;0.00;0.62;8.53;7.67;;;25.80;41.10;;;;;;2245293;61;20438;-62
2021/08/30 05:52:41;0.00;0.00;0.62;0.00;0.00;0.62;9.00;8.20;;;25.80;41.00;;;;;;2246303;61;20420;-61
2021/08/30 05:55:25;0.00;0.00;0.62;0.00;0.00;0.62;8.63;7.83;;;25.80;41.00;;;;;;2246160;61;20394;-62
2021/08/30 05:58:10;0.00;0.00;0.62;0.00;0.00;0.62;8.07;7.27;;;25.80;41.00;;;;;;2245385;61;20361;-63
2021/08/30 06:00:56;0.00;0.00;0.62;0.00;0.00;0.62;8.33;7.53;;;25.80;41.00;;;;;;2245865;61;20603;-63
2021/08/30 06:03:40;0.00;0.00;0.62;0.00;0.00;0.62;8.13;7.40;;;25.80;41.00;;;;;;2246161;61;20384;-62
2021/08/30 06:06:25;0.00;0.00;0.62;0.00;0.00;0.62;7.80;7.07;;;25.80;41.00;;;;;;2245610;61;20362;-62
2021/08/30 06:09:09;0.00;0.00;0.62;0.00;0.00;0.62;8.63;7.73;;;25.80;41.00;;;;;;2246134;61;20358;-61
2021/08/30 06:11:53;0.00;0.00;0.62;0.00;0.00;0.62;7.37;6.70;;;25.80;41.10;;;;;;2245484;61;20398;-61
2021/08/30 06:14:38;0.00;0.00;0.62;0.00;0.00;0.62;8.50;7.57;;;25.80;41.10;;;;;;2242959;61;20362;-62
2021/08/30 06:17:24;0.00;0.00;0.62;0.00;0.00;0.62;7.93;7.13;;;25.90;41.10;;;;;;2246049;61;20357;-62
2021/08/30 06:20:10;0.00;0.00;0.62;0.00;0.00;0.62;7.40;6.70;;;25.90;41.20;;;;;;2245267;61;20440;-64
2021/08/30 06:22:55;0.00;0.00;0.62;0.00;0.00;0.62;9.80;7.30;;;25.90;41.20;;;;;;2246075;61;20426;-62
2021/08/30 06:25:39;0.00;0.00;0.62;0.00;0.00;0.62;8.33;7.63;;;25.90;41.10;;;;;;2246148;61;20440;-62
2021/08/30 06:28:24;0.00;0.00;0.62;0.00;0.00;0.62;11.43;9.37;;;25.90;41.00;;;;;;2245422;61;20587;-62
2021/08/30 06:31:08;0.00;0.00;0.62;0.00;0.00;0.62;8.77;7.93;;;25.90;41.00;;;;;;2246011;61;20789;-60
2021/08/30 06:33:55;0.00;0.00;0.62;0.00;0.00;0.62;9.40;8.37;;;25.90;41.00;;;;;;2245354;61;20346;-62
2021/08/30 06:36:40;0.00;0.00;0.62;0.00;0.00;0.62;8.20;7.40;;;25.90;41.00;;;;;;2246011;61;20385;-61
2021/08/30 06:39:25;0.00;0.00;0.62;0.00;0.00;0.62;8.07;7.30;;;25.90;41.00;;;;;;2246121;61;20401;-58
2021/08/30 06:42:09;0.00;0.00;0.62;0.00;0.00;0.62;8.40;7.60;;;25.90;41.00;;;;;;2245369;61;20459;-61
2021/08/30 06:44:54;0.00;0.00;0.62;0.00;0.00;0.62;9.23;8.30;;;25.90;41.00;;;;;;2246076;61;20393;-63
2021/08/30 06:47:38;0.00;0.00;0.62;0.00;0.00;0.62;9.33;8.37;;;25.90;41.10;;;;;;2246098;61;20364;-63
2021/08/30 06:50:25;0.00;0.00;0.62;0.00;0.00;0.62;8.53;7.73;;;25.90;41.00;;;;;;2245051;61;20362;-62
2021/08/30 06:53:12;0.00;0.00;0.62;0.00;0.00;0.62;7.80;7.07;;;25.90;41.00;;;;;;2245757;61;20598;-64
2021/08/30 06:55:57;0.00;0.00;0.62;0.00;0.00;0.62;8.00;7.30;;;25.90;41.00;;;;;;2245715;61;20362;-65
2021/08/30 06:58:41;0.00;0.00;0.62;0.00;0.00;0.62;8.17;7.43;;;25.90;41.00;;;;;;2245779;61;20438;-64
2021/08/30 07:01:25;0.00;0.00;0.62;0.00;0.00;0.62;8.73;7.87;;;26.00;41.00;;;;;;2245952;61;20421;-62
2021/08/30 07:04:10;0.00;0.00;0.62;0.00;0.00;0.62;8.40;7.47;;;26.00;41.00;;;;;;2245024;61;20641;-64
2021/08/30 07:06:56;0.00;0.00;0.62;0.00;0.00;0.62;8.33;7.53;;;26.00;41.00;;;;;;2245956;61;20358;-64
2021/08/30 07:09:41;0.00;0.00;0.62;0.00;0.00;0.62;9.30;7.87;;;26.00;41.00;;;;;;2245960;61;20437;-66
2021/08/30 07:12:25;0.00;0.00;0.62;0.00;0.00;0.62;8.93;8.03;;;26.00;40.90;;;;;;2245096;61;20420;-64
2021/08/30 07:15:11;0.00;0.00;0.62;0.00;0.00;0.62;8.57;7.87;;;26.00;40.90;;;;;;2246042;61;20431;-61
2021/08/30 07:17:56;0.00;0.00;0.62;0.00;0.00;0.62;8.63;7.63;;;26.00;40.90;;;;;;2246035;61;20360;-63
2021/08/30 07:20:40;0.00;0.00;0.62;0.00;0.00;0.62;8.50;7.67;;;26.00;41.00;;;;;;2245569;61;20619;-62
2021/08/30 07:23:29;0.00;0.00;0.62;0.00;0.00;0.62;8.23;7.50;;;26.00;41.00;;;;;;2245977;61;20384;-61
2021/08/30 07:26:14;0.00;0.00;0.62;0.00;0.00;0.62;8.07;7.37;;;26.00;41.00;;;;;;2244997;61;20377;-61
2021/08/30 07:28:59;0.00;0.00;0.62;0.00;0.00;0.62;9.00;8.10;;;26.00;40.90;;;;;;2246061;61;20393;-63
2021/08/30 07:31:43;0.00;0.00;0.62;0.00;0.00;0.62;8.43;7.23;;;26.00;41.00;;;;;;2245923;61;20413;-61
2021/08/30 07:34:28;0.00;0.00;0.62;0.00;0.00;0.62;7.60;6.90;;;26.00;41.60;;;;;;2245005;61;20483;-63
2021/08/30 07:37:13;0.00;0.00;0.62;0.00;0.00;0.62;7.97;7.17;;;26.00;40.90;;;;;;2245944;61;20406;-65
2021/08/30 07:39:59;0.00;0.00;0.62;0.00;0.00;0.62;8.87;8.00;;;26.10;41.00;;;;;;2245766;61;20386;-62
2021/08/30 07:42:44;0.00;0.00;0.62;0.00;0.00;0.62;8.43;7.60;;;26.00;40.90;;;;;;2245301;61;20421;-64
2021/08/30 07:45:28;0.00;0.00;0.62;0.00;0.00;0.62;7.87;7.10;;;26.10;41.00;;;;;;2246023;61;20489;-64
2021/08/30 07:48:13;0.00;0.00;0.62;0.00;0.00;0.62;8.73;7.87;;;26.10;41.00;;;;;;2245198;61;20406;-64
2021/08/30 07:50:58;0.00;0.00;0.62;0.00;0.00;0.62;8.70;7.80;;;26.10;41.00;;;;;;2245800;61;20402;-62
2021/08/30 07:53:43;0.00;0.00;0.62;0.00;0.00;0.62;8.20;7.30;;;26.10;41.00;;;;;;2245571;61;20353;-62
2021/08/30 07:56:29;0.00;0.00;0.62;0.00;0.00;0.62;7.77;6.97;;;26.10;40.90;;;;;;2245107;61;20365;-62
2021/08/30 07:59:14;0.00;0.00;0.62;0.00;0.00;0.62;10.00;7.20;;;26.10;40.90;;;;;;2245996;61;20388;-61
2021/08/30 08:01:58;0.00;0.00;0.62;0.00;0.00;0.62;7.27;6.50;;;26.10;40.90;;;;;;2245726;61;20421;-63
2021/08/30 08:04:42;0.00;0.00;0.62;0.00;0.00;0.62;7.40;6.70;;;26.10;40.90;;;;;;2244989;61;20660;-63
2021/08/30 08:07:27;0.00;0.00;0.62;0.00;0.00;0.62;8.23;7.53;;;26.20;41.00;;;;;;2245856;61;20361;-62
2021/08/30 08:10:12;0.00;0.00;0.62;0.00;0.00;0.62;7.60;6.80;;;26.20;41.00;;;;;;2244839;61;20397;-63
2021/08/30 08:12:57;0.00;0.00;0.62;0.00;0.00;0.62;7.87;7.23;;;26.20;40.90;;;;;;2245944;61;20362;-59
2021/08/30 08:15:43;0.00;0.00;0.62;0.00;0.00;0.62;8.57;7.30;;;26.20;40.90;;;;;;2245541;61;20365;-63
2021/08/30 08:18:27;0.00;0.00;0.62;0.00;0.00;0.62;6.97;6.37;;;26.20;40.90;;;;;;2245250;61;20698;-60
2021/08/30 08:21:12;0.00;0.00;0.62;0.00;0.00;0.62;6.47;5.87;;;26.20;40.80;;;;;;2245553;61;20374;-61
2021/08/30 08:23:56;0.00;0.00;0.62;0.00;0.00;0.62;7.40;6.70;;;26.20;40.80;;;;;;2245832;61;20433;-62
2021/08/30 08:26:41;0.00;0.00;0.62;0.00;0.00;0.62;7.90;7.17;;;26.20;40.80;;;;;;2244823;61;20389;-63
2021/08/30 08:29:27;0.00;0.00;0.62;0.00;0.00;0.62;6.90;6.20;;;26.30;40.80;;;;;;2245841;61;20366;-63
2021/08/30 08:32:11;0.00;0.00;0.62;0.00;0.00;0.62;6.90;6.30;;;26.30;40.80;;;;;;2245261;61;20453;-63
2021/08/30 08:34:56;0.00;0.00;0.62;0.00;0.00;0.62;7.90;7.10;;;26.30;40.80;;;;;;2245561;61;20468;-61
2021/08/30 08:37:41;0.00;0.00;0.62;0.00;0.00;0.62;6.70;6.10;;;26.30;40.80;;;;;;2245651;61;20393;-63
2021/08/30 08:40:26;0.00;0.00;0.62;0.00;0.00;0.62;7.20;6.53;;;26.30;40.80;;;;;;2244786;61;20473;-62
2021/08/30 08:43:12;0.00;0.00;0.62;0.00;0.00;0.62;8.20;6.97;;;26.30;40.80;;;;;;2245659;61;20583;-64
2021/08/30 08:45:58;0.00;0.00;0.62;0.00;0.00;0.62;8.07;7.37;;;26.30;40.80;;;;;;2245790;61;20389;-65
2021/08/30 08:48:44;0.00;0.00;0.62;0.00;0.00;0.62;7.00;6.40;;;26.30;40.80;;;;;;2244990;61;20386;-65
2021/08/30 08:51:29;0.00;0.00;0.62;0.00;0.00;0.62;7.80;7.10;;;26.30;40.80;;;;;;2245347;61;20388;-63
2021/08/30 08:54:14;0.00;0.00;0.62;0.00;0.00;0.62;6.80;6.10;;;26.40;40.80;;;;;;2245737;61;20397;-64
2021/08/30 08:57:02;0.00;0.00;0.62;0.00;0.00;0.62;7.20;6.50;;;26.40;40.80;;;;;;2245678;61;20431;-64
2021/08/30 08:59:58;0.00;0.00;0.62;0.00;0.00;0.62;8.50;7.70;;;26.40;40.90;;;;;;2245434;61;20373;-61
2021/08/30 09:02:49;0.00;0.00;0.62;0.00;0.00;0.62;6.90;6.30;;;26.40;40.90;;;;;;2244928;61;20350;-61
2021/08/30 09:05:35;0.00;0.00;0.62;0.00;0.00;0.62;7.60;6.90;;;26.40;40.80;;;;;;2245651;61;20397;-64
2021/08/30 09:08:28;0.00;0.00;0.62;0.00;0.00;0.62;7.00;6.30;;;26.50;40.90;;;;;;2245699;61;20389;-64
2021/08/30 09:11:15;0.00;0.00;0.62;0.00;0.00;0.62;6.20;5.67;;;26.40;40.80;;;;;;2244897;61;20385;-62
2021/08/30 09:14:00;0.00;0.00;0.62;0.00;0.00;0.62;7.10;6.50;;;26.40;40.80;;;;;;2245581;61;20466;-61
2021/08/30 09:16:45;0.00;0.00;0.62;0.00;0.00;0.62;6.60;6.10;;;26.50;40.90;;;;;;2245103;61;20695;-63
2021/08/30 09:19:32;0.00;0.00;0.62;0.00;0.00;0.62;7.50;6.80;;;26.50;40.80;;;;;;2245510;61;20361;-64
2021/08/30 09:22:30;0.00;0.00;0.62;0.00;0.00;0.62;7.60;6.80;;;26.50;40.80;;;;;;2246378;61;20597;-63
2021/08/30 09:25:15;0.00;0.00;0.62;0.00;0.00;0.62;6.43;5.83;;;26.50;40.70;;;;;;2245508;61;20389;-63
2021/08/30 09:28:01;0.00;0.00;0.62;0.00;0.00;0.62;7.60;6.90;;;26.50;40.50;;;;;;2246217;61;20421;-63
2021/08/30 09:30:53;0.00;0.00;0.62;0.00;0.00;0.62;7.53;6.83;;;26.50;40.50;;;;;;2246299;61;20666;-63
2021/08/30 09:33:47;0.00;0.00;0.62;0.00;0.00;0.62;7.33;6.63;;;26.50;40.50;;;;;;2245314;61;20393;-63
2021/08/30 09:36:42;0.00;0.00;0.62;0.00;0.00;0.62;8.17;7.33;;;26.50;40.50;;;;;;2246272;61;20367;-62
2021/08/30 09:39:27;0.00;0.00;0.62;0.00;0.00;0.62;6.27;5.77;;;26.50;40.50;;;;;;2242287;61;20369;-62
2021/08/30 09:42:12;0.00;0.00;0.62;0.00;0.00;0.62;7.90;6.47;;;26.50;40.40;;;;;;2246237;61;20409;-61
2021/08/30 09:45:09;0.00;0.00;0.62;0.00;0.00;0.62;6.70;6.10;;;26.50;40.50;;;;;;2246298;61;20441;-63
2021/08/30 09:47:56;0.00;0.00;0.62;0.00;0.00;0.62;5.80;5.30;;;26.50;40.50;;;;;;2245296;61;20609;-63
2021/08/30 09:50:43;0.00;0.00;0.62;0.00;0.00;0.62;6.07;5.57;;;26.50;40.50;;;;;;2246141;61;20459;-62
2021/08/30 09:53:30;0.00;0.00;0.62;0.00;0.00;0.62;7.40;6.70;;;26.50;40.50;;;;;;2246004;61;20361;-62
2021/08/30 09:56:15;0.00;0.00;0.62;0.00;0.00;0.62;6.50;5.90;;;26.50;40.40;;;;;;2245943;61;20611;-62
2021/08/30 09:59:01;0.00;0.00;0.62;0.00;0.00;0.62;6.23;5.70;;;26.60;40.50;;;;;;2246455;61;20381;-60
2021/08/30 10:01:46;0.00;0.00;0.62;0.00;0.00;0.62;6.13;5.63;;;26.60;40.40;;;;;;2245176;61;20772;-61
2021/08/30 10:04:33;0.00;0.00;0.62;0.00;0.00;0.62;5.80;5.20;;;26.60;40.30;;;;;;2246029;61;20436;-62
2021/08/30 10:07:18;0.00;0.00;0.62;0.00;0.00;0.62;6.97;6.27;;;26.60;40.20;;;;;;2246269;61;20381;-62
2021/08/30 10:10:06;0.00;0.00;0.62;0.00;0.00;0.62;6.20;5.60;;;26.60;40.20;;;;;;2245198;61;20710;-61
2021/08/30 10:12:52;0.00;0.00;0.62;0.00;0.00;0.62;5.20;4.77;;;26.60;40.10;;;;;;2246189;61;20374;-62
2021/08/30 10:15:37;0.00;0.00;0.62;0.00;0.00;0.62;5.60;5.10;;;26.60;40.10;;;;;;2246165;61;20353;-63
2021/08/30 10:18:22;0.00;0.00;0.62;0.00;0.00;0.62;6.17;5.60;;;26.60;40.10;;;;;;2246040;61;20401;-61
2021/08/30 10:21:15;0.00;0.00;0.62;0.00;0.00;0.62;5.90;5.40;;;26.60;40.10;;;;;;2245762;61;20378;-63
2021/08/30 10:24:12;0.00;0.00;0.62;0.00;0.00;0.62;7.03;5.83;;;26.70;40.00;;;;;;2245171;61;20773;-61
2021/08/30 10:27:03;0.00;0.00;0.62;0.00;0.00;0.62;6.00;5.13;;;26.60;39.90;;;;;;2246141;61;20414;-63
2021/08/30 10:29:48;0.00;0.00;0.62;0.00;0.00;0.62;6.47;5.43;;;26.60;39.90;;;;;;2246129;61;20580;-62
2021/08/30 10:32:39;0.00;0.00;0.62;0.00;0.00;0.62;5.70;5.10;;;26.60;39.90;;;;;;2245179;61;20510;-63
2021/08/30 10:35:26;0.00;0.00;0.62;0.00;0.00;0.62;4.83;4.43;;;26.60;39.90;;;;;;2246096;61;20389;-62
2021/08/30 10:38:16;0.00;0.00;0.62;0.00;0.00;0.62;5.27;4.77;;;26.60;39.90;;;;;;2245473;61;20362;-64
2021/08/30 10:41:01;0.00;0.00;0.62;0.00;0.00;0.62;5.80;5.20;;;26.60;39.90;;;;;;2245955;61;20385;-61
2021/08/30 10:43:47;0.00;0.00;0.62;0.00;0.00;0.62;4.90;4.40;;;26.60;39.90;;;;;;2246152;61;20365;-62
2021/08/30 10:46:41;0.00;0.00;0.62;0.00;0.00;0.62;5.43;4.97;;;26.60;39.80;;;;;;2245198;61;20704;-62
2021/08/30 10:49:28;0.00;0.00;0.62;0.00;0.00;0.62;5.83;5.33;;;26.60;39.80;;;;;;2246236;61;20357;-62
2021/08/30 10:52:15;0.00;0.00;0.62;0.00;0.00;0.62;6.33;4.67;;;26.60;39.70;;;;;;2245935;61;20397;-62
2021/08/30 10:55:00;0.00;0.00;0.62;0.00;0.00;0.62;6.53;4.63;;;26.60;40.30;;;;;;2245238;61;20692;-63
2021/08/30 10:57:50;0.00;0.00;0.62;0.00;0.00;0.62;5.97;5.20;;;26.60;39.60;;;;;;2246129;61;20357;-63